Time;durP1;ratioP1;P1;durP2;ratioP2;P2;SDS_P1;SDS_P2;PMS_P1;PMS_P2;Temp;Humidity;BMP_temperature;BMP_pressure;BME280_temperature;BME280_humidity;BME280_pressure;Samples;Min_cycle;Max_cycle;Signal;HPM_P1;HPM_P2
2021/01/02 00:00:04;;;;;;;13.75;7.05;;;6.70;90.70;;;;;;5074828;28;20036;-75
2021/01/02 00:03:05;;;;;;;11.95;6.90;;;6.70;90.70;;;;;;5092228;28;20024;-75
2021/01/02 00:05:56;;;;;;;11.27;6.78;;;6.70;90.60;;;;;;5073216;28;20028;-75
2021/01/02 00:08:25;;;;;;;11.20;7.18;;;6.60;90.60;;;;;;5074291;28;20480;-75
2021/01/02 00:10:53;;;;;;;10.95;6.60;;;6.70;90.60;;;;;;5074288;28;20425;-76
2021/01/02 00:13:25;;;;;;;11.27;6.47;;;6.70;90.60;;;;;;5074270;28;20471;-75
2021/01/02 00:15:53;;;;;;;11.85;6.05;;;6.60;90.60;;;;;;5091049;28;20077;-75
2021/01/02 00:18:44;;;;;;;11.70;6.53;;;6.60;90.50;;;;;;5094618;28;20092;-76
2021/01/02 00:21:22;;;;;;;11.57;6.47;;;6.60;90.40;;;;;;5073863;28;20107;-76
2021/01/02 00:24:29;;;;;;;8.80;5.63;;;6.70;90.30;;;;;;5074949;28;20492;-76
2021/01/02 00:27:04;;;;;;;11.57;6.45;;;6.70;90.40;;;;;;5094672;28;20448;-75
2021/01/02 00:29:49;;;;;;;10.43;6.88;;;6.70;90.20;;;;;;5085916;28;20103;-75
2021/01/02 00:32:24;;;;;;;9.27;5.72;;;6.70;90.30;;;;;;5073580;28;20032;-76
2021/01/02 00:35:18;;;;;;;8.75;5.80;;;6.60;90.30;;;;;;5073151;28;20020;-75
2021/01/02 00:37:49;;;;;;;10.10;6.18;;;6.60;90.30;;;;;;5073844;28;20028;-75
2021/01/02 00:40:17;;;;;;;8.02;5.38;;;6.70;90.30;;;;;;5086695;28;20070;-76
2021/01/02 00:42:45;;;;;;;9.50;5.90;;;6.70;90.20;;;;;;5093784;28;20024;-75
2021/01/02 00:45:16;;;;;;;7.93;5.35;;;6.70;90.10;;;;;;5079369;28;20416;-75
2021/01/02 00:47:43;;;;;;;9.40;5.50;;;6.70;90.10;;;;;;5073705;28;20093;-75
2021/01/02 00:50:11;;;;;;;8.88;5.28;;;6.70;90.00;;;;;;5071883;28;20032;-74
2021/01/02 00:52:46;;;;;;;8.65;5.43;;;6.60;90.10;;;;;;5073221;28;20052;-75
2021/01/02 00:55:50;;;;;;;7.78;5.00;;;6.60;90.10;;;;;;5072878;28;20049;-75
2021/01/02 00:58:40;;;;;;;7.60;5.05;;;6.60;90.10;;;;;;5073072;28;20044;-75
2021/01/02 01:01:12;;;;;;;7.65;4.90;;;6.50;90.00;;;;;;5073031;28;20489;-75
2021/01/02 01:04:26;;;;;;;11.55;5.55;;;6.50;90.00;;;;;;5073117;28;20508;-74
2021/01/02 01:06:55;;;;;;;7.45;5.03;;;6.50;90.00;;;;;;5072899;28;20024;-74
2021/01/02 01:09:23;;;;;;;8.65;5.38;;;6.50;90.00;;;;;;5078487;28;20032;-74
2021/01/02 01:11:53;;;;;;;9.73;5.13;;;6.50;89.80;;;;;;5081217;28;20023;-74
2021/01/02 01:14:20;;;;;;;8.32;5.10;;;6.50;89.40;;;;;;5072105;28;20569;-74
2021/01/02 01:16:49;;;;;;;7.72;4.60;;;6.40;89.40;;;;;;5073102;28;20469;-74
2021/01/02 01:19:18;;;;;;;7.88;3.92;;;6.40;89.40;;;;;;5077339;28;20051;-74
2021/01/02 01:21:45;;;;;;;8.25;4.50;;;6.40;89.30;;;;;;5092083;28;20024;-74
2021/01/02 01:24:14;;;;;;;6.05;4.00;;;6.40;89.10;;;;;;5085109;28;20043;-75
2021/01/02 01:26:58;;;;;;;7.68;4.65;;;6.30;89.00;;;;;;5072674;28;20032;-74
2021/01/02 01:29:50;;;;;;;6.63;4.25;;;6.40;89.00;;;;;;5078648;28;20024;-74
2021/01/02 01:32:21;;;;;;;5.90;4.00;;;6.30;88.80;;;;;;5063713;28;20032;-74
2021/01/02 01:34:48;;;;;;;7.05;3.90;;;6.30;88.80;;;;;;5073119;28;20021;-74
2021/01/02 01:37:17;;;;;;;6.80;4.18;;;6.20;88.60;;;;;;5076030;28;20101;-74
2021/01/02 01:39:50;;;;;;;7.97;3.85;;;6.20;88.40;;;;;;5084534;28;20044;-75
2021/01/02 01:42:18;;;;;;;6.32;4.00;;;6.20;88.40;;;;;;5088185;28;20082;-74
2021/01/02 01:44:51;;;;;;;7.03;3.83;;;6.10;88.50;;;;;;5074608;28;20116;-75
2021/01/02 01:47:20;;;;;;;6.68;3.80;;;6.10;88.40;;;;;;5082775;28;20024;-74
2021/01/02 01:50:13;;;;;;;4.82;3.33;;;6.00;88.40;;;;;;5082232;28;20024;-75
2021/01/02 01:52:50;;;;;;;6.45;4.32;;;6.00;88.40;;;;;;5072248;28;20025;-75
2021/01/02 01:55:19;;;;;;;6.88;3.80;;;5.90;88.30;;;;;;5084112;28;20130;-75
2021/01/02 01:57:47;;;;;;;8.65;4.10;;;5.90;88.30;;;;;;5092351;28;20114;-75
2021/01/02 02:00:14;;;;;;;6.35;3.13;;;5.90;88.20;;;;;;5074713;28;20044;-75
2021/01/02 02:02:39;;;;;;;5.57;3.47;;;5.80;88.10;;;;;;5072046;28;20111;-75
2021/01/02 02:05:10;;;;;;;5.82;3.65;;;5.80;88.10;;;;;;5082824;28;20119;-75
2021/01/02 02:07:46;;;;;;;4.78;3.22;;;5.80;88.20;;;;;;5092530;28;20069;-73
2021/01/02 02:10:15;;;;;;;6.43;3.58;;;5.70;88.30;;;;;;5076537;28;20033;-72
2021/01/02 02:12:52;;;;;;;5.32;3.22;;;5.70;88.80;;;;;;5071927;28;20072;-73
2021/01/02 02:15:20;;;;;;;6.40;4.00;;;5.60;88.50;;;;;;5071855;28;20041;-73
2021/01/02 02:17:47;;;;;;;8.52;4.00;;;5.60;88.60;;;;;;5071964;28;20029;-73
2021/01/02 02:20:18;;;;;;;5.50;3.75;;;5.50;88.70;;;;;;5083501;28;20496;-73
2021/01/02 02:22:44;;;;;;;7.75;4.18;;;5.50;88.90;;;;;;5073445;28;20498;-73
2021/01/02 02:25:15;;;;;;;7.50;4.53;;;5.50;89.10;;;;;;5071382;28;20107;-73
2021/01/02 02:27:42;;;;;;;8.63;4.82;;;5.40;89.20;;;;;;5072043;28;20036;-73
2021/01/02 02:30:09;;;;;;;10.50;5.20;;;5.40;89.60;;;;;;5076167;28;20093;-74
2021/01/02 02:32:45;;;;;;;8.65;5.25;;;5.40;89.80;;;;;;5090024;28;20032;-74
2021/01/02 02:35:20;;;;;;;10.35;5.70;;;5.30;90.00;;;;;;5077959;28;20520;-74
2021/01/02 02:37:49;;;;;;;10.52;6.45;;;5.30;90.00;;;;;;5071566;28;20060;-73
2021/01/02 02:40:17;;;;;;;11.40;6.28;;;5.30;90.10;;;;;;5085191;28;20495;-73
2021/01/02 02:42:54;;;;;;;13.20;6.68;;;5.20;90.20;;;;;;5085011;28;20021;-74
2021/01/02 02:45:23;;;;;;;12.65;7.00;;;5.20;90.40;;;;;;5086955;28;20039;-74
2021/01/02 02:47:53;;;;;;;11.90;6.85;;;5.20;90.40;;;;;;5090654;28;20085;-74
2021/01/02 02:50:23;;;;;;;12.55;7.85;;;5.10;90.60;;;;;;5089337;28;20159;-74
2021/01/02 02:53:01;;;;;;;12.98;7.18;;;5.10;90.70;;;;;;5082238;28;20035;-75
2021/01/02 02:55:27;;;;;;;14.32;7.63;;;5.10;90.80;;;;;;5072303;28;20040;-75
2021/01/02 02:57:53;;;;;;;11.35;7.70;;;5.00;90.90;;;;;;5071288;28;20123;-76
2021/01/02 03:00:19;;;;;;;14.15;9.77;;;5.00;91.00;;;;;;5073288;28;20036;-76
2021/01/02 03:02:49;;;;;;;17.08;9.88;;;4.90;91.10;;;;;;5070674;28;20021;-75
2021/01/02 03:05:16;;;;;;;18.38;10.13;;;4.90;91.30;;;;;;5070626;28;20044;-75
2021/01/02 03:07:44;;;;;;;20.30;10.85;;;4.90;91.40;;;;;;5071466;28;20551;-75
2021/01/02 03:10:10;;;;;;;15.95;9.13;;;4.80;91.40;;;;;;5087727;28;20472;-76
2021/01/02 03:12:57;;;;;;;17.23;10.70;;;4.80;91.60;;;;;;5079901;28;20548;-75
2021/01/02 03:15:25;;;;;;;19.77;11.00;;;4.80;91.60;;;;;;5070686;28;20089;-75
2021/01/02 03:17:53;;;;;;;20.63;12.30;;;4.80;91.70;;;;;;5079781;28;20043;-75
2021/01/02 03:20:19;;;;;;;18.10;10.85;;;4.80;91.80;;;;;;5084404;28;20036;-75
2021/01/02 03:22:46;;;;;;;18.75;10.98;;;4.70;91.90;;;;;;5070839;28;20021;-76
2021/01/02 03:25:14;;;;;;;19.45;10.80;;;4.70;91.90;;;;;;5072465;28;20036;-75
2021/01/02 03:27:40;;;;;;;19.95;10.77;;;4.70;92.00;;;;;;5078081;28;20100;-76
2021/01/02 03:30:07;;;;;;;22.60;12.18;;;4.70;92.10;;;;;;5086682;28;20032;-75
2021/01/02 03:32:37;;;;;;;23.05;12.02;;;4.60;92.10;;;;;;5071061;28;20104;-76
2021/01/02 03:35:05;;;;;;;21.98;12.23;;;4.60;92.20;;;;;;5072223;28;20047;-78
2021/01/02 03:37:32;;;;;;;21.67;12.02;;;4.60;92.30;;;;;;5081208;28;20443;-77
2021/01/02 03:39:57;;;;;;;19.60;11.32;;;4.60;92.40;;;;;;5093307;28;20040;-77
2021/01/02 03:42:23;;;;;;;19.90;11.35;;;4.50;92.40;;;;;;5093678;28;20043;-77
2021/01/02 03:44:48;;;;;;;21.00;12.20;;;4.50;92.50;;;;;;5092289;28;20480;-77
2021/01/02 03:47:14;;;;;;;20.50;11.68;;;4.50;92.60;;;;;;5074080;28;20017;-77
2021/01/02 03:49:39;;;;;;;20.98;11.98;;;4.50;92.60;;;;;;5077240;28;20028;-76
2021/01/02 03:52:06;;;;;;;22.38;12.15;;;4.50;92.70;;;;;;5074624;28;20463;-77
2021/01/02 03:54:32;;;;;;;18.35;11.35;;;4.50;92.70;;;;;;5074004;28;20053;-77
2021/01/02 03:56:58;;;;;;;20.63;13.10;;;4.40;92.70;;;;;;5083434;28;20033;-76
2021/01/02 03:59:23;;;;;;;18.40;11.60;;;4.40;92.80;;;;;;5097775;28;20035;-77
2021/01/02 04:01:59;;;;;;;23.25;12.52;;;4.40;92.90;;;;;;5076373;28;20051;-77
2021/01/02 04:04:26;;;;;;;21.75;12.60;;;4.50;93.00;;;;;;5074302;28;20457;-76
2021/01/02 04:06:52;;;;;;;22.23;12.65;;;4.50;93.00;;;;;;5075043;28;20032;-77
2021/01/02 04:09:21;;;;;;;22.13;12.32;;;4.50;93.10;;;;;;5073862;28;20431;-77
2021/01/02 04:11:47;;;;;;;19.83;12.50;;;4.60;93.20;;;;;;5074783;28;20084;-77
2021/01/02 04:14:13;;;;;;;21.85;12.00;;;4.60;93.20;;;;;;5072916;28;20028;-77
2021/01/02 04:16:40;;;;;;;21.58;11.68;;;4.60;93.10;;;;;;5088626;28;20028;-77
2021/01/02 04:19:06;;;;;;;20.38;11.82;;;4.70;93.10;;;;;;5094406;28;20039;-75
2021/01/02 04:21:33;;;;;;;20.60;11.32;;;4.70;93.00;;;;;;5090364;28;20049;-75
2021/01/02 04:23:58;;;;;;;20.48;12.00;;;4.70;92.90;;;;;;5094808;28;20115;-75
2021/01/02 04:26:24;;;;;;;20.48;11.10;;;4.70;92.90;;;;;;5094163;28;20082;-74
2021/01/02 04:28:52;;;;;;;22.50;11.82;;;4.70;92.80;;;;;;5097073;28;20091;-75
2021/01/02 04:31:21;;;;;;;20.33;11.85;;;4.70;92.80;;;;;;5096316;28;20472;-75
2021/01/02 04:33:50;;;;;;;20.33;12.02;;;4.80;92.80;;;;;;5093772;28;20029;-77
2021/01/02 04:36:16;;;;;;;21.15;11.38;;;4.80;92.80;;;;;;5080024;28;20056;-76
2021/01/02 04:38:43;;;;;;;17.63;10.93;;;4.80;92.70;;;;;;5073270;28;20043;-74
2021/01/02 04:41:11;;;;;;;16.05;10.48;;;4.80;92.70;;;;;;5077450;28;20358;-73
2021/01/02 04:43:37;;;;;;;19.45;11.43;;;4.80;92.70;;;;;;5073821;28;20378;-74
2021/01/02 04:46:03;;;;;;;18.98;10.85;;;4.80;92.70;;;;;;5084399;28;20102;-73
2021/01/02 04:48:28;;;;;;;22.85;11.73;;;4.70;92.80;;;;;;5092581;28;20115;-74
2021/01/02 04:50:54;;;;;;;17.30;11.07;;;4.70;92.80;;;;;;5081188;28;20032;-73
2021/01/02 04:53:21;;;;;;;18.98;10.88;;;4.70;92.90;;;;;;5073115;28;20468;-73
2021/01/02 04:55:47;;;;;;;19.60;11.68;;;4.60;92.90;;;;;;5081719;28;20491;-73
2021/01/02 04:58:15;;;;;;;17.77;11.02;;;4.60;92.90;;;;;;5092289;28;20040;-73
2021/01/02 05:00:41;;;;;;;19.63;11.43;;;4.60;93.00;;;;;;5081447;28;20031;-74
2021/01/02 05:03:07;;;;;;;18.33;11.80;;;4.70;93.00;;;;;;5072558;28;20078;-74
2021/01/02 05:05:34;;;;;;;15.82;10.32;;;4.70;93.00;;;;;;5079597;28;20039;-74
2021/01/02 05:08:00;;;;;;;15.52;9.80;;;4.70;93.00;;;;;;5091146;28;20028;-73
2021/01/02 05:10:26;;;;;;;17.58;9.98;;;4.70;92.90;;;;;;5083920;28;20024;-75
2021/01/02 05:13:12;;;;;;;18.00;11.00;;;4.70;92.90;;;;;;5072309;28;20441;-76
2021/01/02 05:15:39;;;;;;;16.17;10.32;;;4.70;92.90;;;;;;5080924;28;20036;-76
2021/01/02 05:18:05;;;;;;;16.35;9.70;;;4.70;92.80;;;;;;5092996;28;20035;-76
2021/01/02 05:20:31;;;;;;;15.57;9.35;;;4.70;92.80;;;;;;5075345;28;20036;-75
2021/01/02 05:23:07;;;;;;;14.23;9.50;;;4.70;92.80;;;;;;5072908;28;20024;-75
2021/01/02 05:25:34;;;;;;;18.80;10.88;;;4.70;92.70;;;;;;5073058;28;20392;-74
2021/01/02 05:27:59;;;;;;;15.35;9.98;;;4.70;92.70;;;;;;5072746;28;20476;-76
2021/01/02 05:30:35;;;;;;;15.20;9.77;;;4.70;92.70;;;;;;5073436;28;20029;-76
2021/01/02 05:33:08;;;;;;;17.75;9.63;;;4.60;92.70;;;;;;5089859;28;20396;-76
2021/01/02 05:35:43;;;;;;;16.90;9.77;;;4.60;92.70;;;;;;5072471;28;20388;-75
2021/01/02 05:38:11;;;;;;;16.67;9.93;;;4.60;92.70;;;;;;5072364;28;20036;-75
2021/01/02 05:40:39;;;;;;;16.17;9.82;;;4.60;92.70;;;;;;5079557;28;20036;-77
2021/01/02 05:43:05;;;;;;;17.98;9.93;;;4.60;92.70;;;;;;5084693;28;20554;-75
2021/01/02 05:45:31;;;;;;;14.60;9.40;;;4.60;92.70;;;;;;5073375;28;20472;-76
2021/01/02 05:47:57;;;;;;;18.17;10.25;;;4.60;92.70;;;;;;5072033;28;20028;-76
2021/01/02 05:50:23;;;;;;;17.55;9.80;;;4.60;92.70;;;;;;5078563;28;20116;-75
2021/01/02 05:52:50;;;;;;;14.00;8.35;;;4.60;92.70;;;;;;5092456;28;20020;-75
2021/01/02 05:55:29;;;;;;;17.63;9.88;;;4.60;92.70;;;;;;5085289;28;20055;-76
2021/01/02 05:57:55;;;;;;;14.52;8.63;;;4.60;92.70;;;;;;5071969;28;20031;-75
2021/01/02 06:00:22;;;;;;;15.68;10.00;;;4.60;92.60;;;;;;5071216;28;20036;-76
2021/01/02 06:02:48;;;;;;;14.00;9.40;;;4.60;92.60;;;;;;5072139;28;20576;-75
2021/01/02 06:05:13;;;;;;;14.55;8.52;;;4.70;92.70;;;;;;5076262;28;20127;-75
2021/01/02 06:07:49;;;;;;;17.25;9.90;;;4.70;92.60;;;;;;5085283;28;20031;-76
2021/01/02 06:10:15;;;;;;;16.33;9.77;;;4.80;92.60;;;;;;5071265;28;20513;-76
2021/01/02 06:12:42;;;;;;;15.63;9.82;;;4.80;92.50;;;;;;5071934;28;20112;-76
2021/01/02 06:15:14;;;;;;;14.90;9.85;;;4.90;92.40;;;;;;5073695;28;20052;-76
2021/01/02 06:17:41;;;;;;;17.30;10.45;;;4.90;92.30;;;;;;5092185;28;20080;-76
2021/01/02 06:20:10;;;;;;;13.73;8.88;;;5.00;92.30;;;;;;5087469;28;20051;-75
2021/01/02 06:22:36;;;;;;;14.65;9.07;;;5.00;92.20;;;;;;5091825;28;20437;-76
2021/01/02 06:25:05;;;;;;;15.50;10.00;;;5.00;92.20;;;;;;5080939;28;20039;-75
2021/01/02 06:27:31;;;;;;;14.98;9.95;;;5.00;92.20;;;;;;5071878;28;20024;-75
2021/01/02 06:29:58;;;;;;;15.88;10.02;;;4.90;92.10;;;;;;5083845;28;20081;-76
2021/01/02 06:32:26;;;;;;;15.70;9.75;;;4.90;92.10;;;;;;5071616;28;20021;-76
2021/01/02 06:35:09;;;;;;;16.67;10.02;;;4.90;92.10;;;;;;5073110;28;20028;-76
2021/01/02 06:37:55;;;;;;;15.63;9.73;;;4.90;92.20;;;;;;5092011;28;20153;-76
2021/01/02 06:40:25;;;;;;;14.75;10.15;;;4.80;92.20;;;;;;5085170;28;20037;-76
2021/01/02 06:42:59;;;;;;;17.25;10.20;;;4.80;92.20;;;;;;5071249;28;20016;-76
2021/01/02 06:45:40;;;;;;;16.77;9.75;;;4.80;92.20;;;;;;5071190;28;20066;-76
2021/01/02 06:48:17;;;;;;;20.27;10.90;;;4.70;92.20;;;;;;5071749;28;20031;-76
2021/01/02 06:50:47;;;;;;;18.65;10.65;;;4.70;92.30;;;;;;5079963;28;20056;-75
2021/01/02 06:53:35;;;;;;;16.13;10.10;;;4.70;92.30;;;;;;5091451;28;20028;-75
2021/01/02 06:56:09;;;;;;;14.38;9.25;;;4.70;92.30;;;;;;5078955;28;20044;-75
2021/01/02 06:58:49;;;;;;;13.82;9.23;;;4.70;92.30;;;;;;5071562;28;20078;-75
2021/01/02 07:01:17;;;;;;;17.85;10.43;;;4.70;92.30;;;;;;5071174;28;20041;-75
2021/01/02 07:03:48;;;;;;;16.85;10.32;;;4.70;92.30;;;;;;5071366;28;20132;-75
2021/01/02 07:06:26;;;;;;;17.73;10.52;;;4.70;92.30;;;;;;5083063;28;20539;-75
2021/01/02 07:08:55;;;;;;;18.98;11.00;;;4.70;92.30;;;;;;5091137;28;20056;-75
2021/01/02 07:11:39;;;;;;;16.33;10.02;;;4.70;92.30;;;;;;5075422;28;20032;-74
2021/01/02 07:14:07;;;;;;;15.68;9.55;;;4.70;92.30;;;;;;5078004;28;20527;-74
2021/01/02 07:16:42;;;;;;;17.10;10.30;;;4.70;92.30;;;;;;5091136;28;20134;-74
2021/01/02 07:19:23;;;;;;;17.13;10.60;;;4.60;92.30;;;;;;5098613;28;20044;-74
2021/01/02 07:21:57;;;;;;;17.30;9.98;;;4.70;92.30;;;;;;5075628;28;20032;-74
2021/01/02 07:24:24;;;;;;;16.90;10.80;;;4.60;92.40;;;;;;5075021;28;20024;-74
2021/01/02 07:27:16;;;;;;;17.90;11.18;;;4.70;92.40;;;;;;5074793;28;20031;-74
2021/01/02 07:29:52;;;;;;;16.52;11.07;;;4.70;92.40;;;;;;5073303;28;20568;-74
2021/01/02 07:32:28;;;;;;;16.25;10.88;;;4.60;92.40;;;;;;5074757;28;20033;-74
2021/01/02 07:34:55;;;;;;;17.90;10.23;;;4.60;92.40;;;;;;5085187;28;20020;-74
2021/01/02 07:37:26;;;;;;;20.17;10.85;;;4.60;92.40;;;;;;5085710;28;20043;-74
2021/01/02 07:40:11;;;;;;;18.02;10.60;;;4.60;92.40;;;;;;5074814;28;20051;-75
2021/01/02 07:42:47;;;;;;;14.75;9.70;;;4.60;92.40;;;;;;5083534;28;20032;-75
2021/01/02 07:45:15;;;;;;;17.98;10.40;;;4.60;92.40;;;;;;5079092;28;20535;-74
2021/01/02 07:47:52;;;;;;;15.52;9.55;;;4.60;92.40;;;;;;5094188;28;20039;-75
2021/01/02 07:50:21;;;;;;;16.02;10.25;;;4.60;92.40;;;;;;5089229;28;20067;-75
2021/01/02 07:53:00;;;;;;;15.98;10.05;;;4.50;92.40;;;;;;5074360;28;20059;-75
2021/01/02 07:55:31;;;;;;;15.10;9.93;;;4.60;92.40;;;;;;5079684;28;20057;-75
2021/01/02 07:57:57;;;;;;;14.75;9.63;;;4.60;92.40;;;;;;5090223;28;20101;-75
2021/01/02 08:00:24;;;;;;;15.90;9.98;;;4.50;92.40;;;;;;5082078;28;20032;-76
2021/01/02 08:02:50;;;;;;;16.10;10.25;;;4.50;92.40;;;;;;5074663;28;20037;-75
2021/01/02 08:05:20;;;;;;;17.15;10.13;;;4.60;92.50;;;;;;5080426;28;20165;-73
2021/01/02 08:07:57;;;;;;;17.52;10.88;;;4.50;92.50;;;;;;5080863;28;20032;-73
2021/01/02 08:10:23;;;;;;;17.20;10.48;;;4.50;92.50;;;;;;5076897;28;20024;-74
2021/01/02 08:12:51;;;;;;;15.43;9.82;;;4.50;92.50;;;;;;5065596;28;20027;-75
2021/01/02 08:15:28;;;;;;;19.15;11.25;;;4.50;92.50;;;;;;5087636;28;20106;-74
2021/01/02 08:17:54;;;;;;;16.90;10.10;;;4.50;92.50;;;;;;5114530;28;20024;-73
2021/01/02 08:20:19;;;;;;;14.82;9.63;;;4.60;92.50;;;;;;5091802;28;20030;-74
2021/01/02 08:22:44;;;;;;;17.67;10.40;;;4.60;92.50;;;;;;5093431;28;20023;-75
2021/01/02 08:25:17;;;;;;;15.88;9.85;;;4.60;92.50;;;;;;5089335;28;20046;-75
2021/01/02 08:27:49;;;;;;;15.05;9.50;;;4.70;92.50;;;;;;5074277;28;20413;-75
2021/01/02 08:30:15;;;;;;;15.55;9.88;;;4.70;92.50;;;;;;5091876;28;20110;-75
2021/01/02 08:32:51;;;;;;;18.80;11.07;;;4.80;92.50;;;;;;5072245;28;20036;-75
2021/01/02 08:35:18;;;;;;;15.15;9.82;;;4.90;92.50;;;;;;5088012;28;20042;-75
2021/01/02 08:37:45;;;;;;;18.38;10.80;;;4.90;92.60;;;;;;5081947;28;20028;-75
2021/01/02 08:40:13;;;;;;;16.08;9.88;;;4.90;92.30;;;;;;5087058;28;20118;-75
2021/01/02 08:42:40;;;;;;;18.08;9.95;;;4.90;92.30;;;;;;5079763;28;20032;-75
2021/01/02 08:45:11;;;;;;;13.57;8.85;;;4.90;92.30;;;;;;5087774;28;20032;-75
2021/01/02 08:47:37;;;;;;;16.20;9.80;;;5.00;92.30;;;;;;5093660;28;20027;-74
2021/01/02 08:50:08;;;;;;;16.75;10.07;;;5.00;92.30;;;;;;5087557;28;20032;-78
2021/01/02 08:52:35;;;;;;;15.50;9.45;;;5.00;92.20;;;;;;5072743;28;20028;-77
2021/01/02 08:55:10;;;;;;;16.55;9.85;;;5.00;92.20;;;;;;5073122;28;20053;-77
2021/01/02 08:57:46;;;;;;;16.15;9.75;;;5.00;92.20;;;;;;5072068;28;20028;-77
2021/01/02 09:00:20;;;;;;;14.57;8.88;;;5.00;92.10;;;;;;5072438;28;20033;-76
2021/01/02 09:02:48;;;;;;;15.73;10.13;;;5.10;92.10;;;;;;5084329;28;20028;-76
2021/01/02 09:05:25;;;;;;;16.88;10.13;;;5.10;92.00;;;;;;5091478;28;20024;-77
2021/01/02 09:07:56;;;;;;;17.00;9.93;;;5.20;92.00;;;;;;5088931;28;20036;-73
2021/01/02 09:10:26;;;;;;;17.58;9.90;;;5.10;92.00;;;;;;5072439;28;20442;-76
2021/01/02 09:13:05;;;;;;;18.42;9.82;;;5.20;92.00;;;;;;5073168;28;20116;-75
2021/01/02 09:15:50;;;;;;;16.85;9.65;;;5.20;92.00;;;;;;5070682;28;20021;-75
2021/01/02 09:18:25;;;;;;;;;;;5.30;92.00;;;;;;5072731;28;20028;-71
2021/01/02 09:20:50;;;;;;;17.35;10.55;;;5.30;92.00;;;;;;5083586;28;19915;-75
2021/01/02 09:23:29;;;;;;;17.90;10.30;;;5.30;91.90;;;;;;5073666;28;20032;-74
2021/01/02 09:25:54;;;;;;;15.90;9.50;;;5.30;91.90;;;;;;5072151;28;20430;-77
2021/01/02 09:28:20;;;;;;;17.42;10.98;;;5.30;91.80;;;;;;5075233;28;20107;-78
2021/01/02 09:30:47;;;;;;;19.20;11.35;;;5.30;91.80;;;;;;5072942;28;20029;-77
2021/01/02 09:33:14;;;;;;;17.27;9.60;;;5.30;91.80;;;;;;5079721;28;20035;-77
2021/01/02 09:35:41;;;;;;;15.07;10.32;;;5.20;91.70;;;;;;5083179;28;20512;-77
2021/01/02 09:38:07;;;;;;;16.73;10.57;;;5.30;91.70;;;;;;5072710;28;20112;-78
2021/01/02 09:40:38;;;;;;;18.08;10.55;;;5.30;91.70;;;;;;5079526;28;20492;-78
2021/01/02 09:43:06;;;;;;;16.85;10.50;;;5.30;91.70;;;;;;5079593;28;20099;-77
2021/01/02 09:45:32;;;;;;;18.80;12.00;;;5.20;91.70;;;;;;5092813;28;20024;-76
2021/01/02 09:47:58;;;;;;;16.20;10.65;;;5.20;91.70;;;;;;5087397;28;20102;-77
2021/01/02 09:50:24;;;;;;;17.83;11.15;;;5.30;91.80;;;;;;5091539;28;20024;-77
2021/01/02 09:52:49;;;;;;;17.15;10.82;;;5.30;91.80;;;;;;5090750;28;20021;-77
2021/01/02 09:55:15;;;;;;;19.20;11.70;;;5.30;91.80;;;;;;5091956;28;20428;-77
2021/01/02 09:57:40;;;;;;;17.98;11.18;;;5.30;91.80;;;;;;5088983;28;20028;-78
2021/01/02 10:00:08;;;;;;;19.02;11.25;;;5.30;91.80;;;;;;5092647;28;20036;-77
2021/01/02 10:02:34;;;;;;;17.55;11.60;;;5.40;91.80;;;;;;5099574;28;20024;-77
2021/01/02 10:05:00;;;;;;;16.50;10.77;;;5.40;91.80;;;;;;5104589;28;20016;-78
2021/01/02 10:07:25;;;;;;;18.00;10.88;;;5.40;91.70;;;;;;5077627;28;20029;-70
2021/01/02 10:09:51;;;;;;;18.55;10.73;;;5.50;91.70;;;;;;5078400;28;20378;-71
2021/01/02 10:12:18;;;;;;;19.17;12.10;;;5.50;91.60;;;;;;5071650;28;20115;-71
2021/01/02 10:14:44;;;;;;;18.70;11.00;;;5.50;91.60;;;;;;5072052;28;20031;-71
2021/01/02 10:17:11;;;;;;;18.45;11.63;;;5.50;91.60;;;;;;5070198;28;20039;-71
2021/01/02 10:19:45;;;;;;;19.60;10.82;;;5.60;91.70;;;;;;5072277;28;20048;-70
2021/01/02 10:22:12;;;;;;;18.80;10.13;;;5.60;91.50;;;;;;5087638;28;20046;-71
2021/01/02 10:24:38;;;;;;;17.58;11.15;;;5.60;91.60;;;;;;5091881;28;20020;-70
2021/01/02 10:27:05;;;;;;;15.98;10.60;;;5.70;91.60;;;;;;5078083;28;20123;-70
2021/01/02 10:29:31;;;;;;;20.23;11.93;;;5.70;91.60;;;;;;5076905;28;20078;-70
2021/01/02 10:32:02;;;;;;;20.58;12.40;;;5.70;91.60;;;;;;5082140;28;20032;-70
2021/01/02 10:34:28;;;;;;;18.58;11.27;;;5.80;91.60;;;;;;5091558;28;20484;-70
2021/01/02 10:36:54;;;;;;;19.35;11.63;;;5.80;91.60;;;;;;5083551;28;20031;-70
2021/01/02 10:39:20;;;;;;;21.15;12.63;;;5.80;91.60;;;;;;5091576;28;20043;-70
2021/01/02 10:41:47;;;;;;;19.30;11.93;;;5.80;91.50;;;;;;5081198;28;20055;-71
2021/01/02 10:44:13;;;;;;;21.45;12.63;;;5.90;91.50;;;;;;5085626;28;20028;-70
2021/01/02 10:46:44;;;;;;;19.98;12.02;;;5.90;91.60;;;;;;5090762;28;20028;-70
2021/01/02 10:49:10;;;;;;;22.13;12.40;;;6.00;91.50;;;;;;5091282;28;20110;-70
2021/01/02 10:51:35;;;;;;;19.63;12.38;;;6.00;91.50;;;;;;5079339;28;20494;-71
2021/01/02 10:54:00;;;;;;;17.40;11.57;;;6.00;91.40;;;;;;5053079;28;20459;-71
2021/01/02 10:56:26;;;;;;;19.15;11.45;;;6.10;91.60;;;;;;5084191;28;20032;-70
2021/01/02 10:58:51;;;;;;;18.75;11.90;;;6.10;91.40;;;;;;5087322;28;20748;-71
2021/01/02 11:01:17;;;;;;;20.73;12.13;;;6.20;91.40;;;;;;5071761;28;20028;-70
2021/01/02 11:03:42;;;;;;;20.77;11.93;;;6.20;91.30;;;;;;5074048;28;20091;-71
2021/01/02 11:06:12;;;;;;;18.98;11.60;;;6.30;91.30;;;;;;5070844;28;20112;-72
2021/01/02 11:08:37;;;;;;;19.80;12.50;;;6.30;91.30;;;;;;5075833;28;20020;-70
2021/01/02 11:11:04;;;;;;;18.20;11.63;;;6.30;91.20;;;;;;5071210;28;20029;-71
2021/01/02 11:13:30;;;;;;;18.05;12.20;;;6.40;91.10;;;;;;5070957;28;20028;-71
2021/01/02 11:15:55;;;;;;;16.58;10.95;;;6.40;91.10;;;;;;5071257;28;20037;-72
2021/01/02 11:18:21;;;;;;;18.55;12.52;;;6.40;91.10;;;;;;5073377;28;20090;-68
2021/01/02 11:20:47;;;;;;;21.05;13.10;;;6.50;91.10;;;;;;5069855;28;20032;-72
2021/01/02 11:23:17;;;;;;;17.92;11.30;;;6.60;91.00;;;;;;5071363;28;20409;-71
2021/01/02 11:25:43;;;;;;;17.70;11.52;;;6.60;90.80;;;;;;5069869;28;20078;-69
2021/01/02 11:28:08;;;;;;;18.95;11.80;;;6.70;90.80;;;;;;5083403;28;20040;-70
2021/01/02 11:30:33;;;;;;;19.25;12.00;;;6.70;90.80;;;;;;5082305;28;20069;-70
2021/01/02 11:32:59;;;;;;;18.63;11.68;;;6.70;90.80;;;;;;5074187;28;20024;-70
2021/01/02 11:35:24;;;;;;;17.80;11.57;;;6.80;90.70;;;;;;5070035;28;20120;-70
2021/01/02 11:37:50;;;;;;;19.38;11.07;;;6.80;90.70;;;;;;5081734;28;20012;-70
2021/01/02 11:40:17;;;;;;;19.48;11.57;;;6.80;90.60;;;;;;5069350;28;20469;-70
2021/01/02 11:42:42;;;;;;;17.90;11.52;;;6.80;90.60;;;;;;5070253;28;20028;-70
2021/01/02 11:45:13;;;;;;;19.02;11.00;;;6.80;90.60;;;;;;5077749;28;20020;-70
2021/01/02 11:47:39;;;;;;;17.65;11.25;;;6.90;90.60;;;;;;5090331;28;20035;-70
2021/01/02 11:50:05;;;;;;;20.23;12.65;;;6.90;90.50;;;;;;5073313;28;20115;-71
2021/01/02 11:52:30;;;;;;;17.95;11.73;;;6.90;90.50;;;;;;5070097;28;20067;-70
2021/01/02 11:54:56;;;;;;;19.15;11.95;;;6.90;90.50;;;;;;5084613;28;20440;-71
2021/01/02 11:57:21;;;;;;;19.42;11.85;;;6.90;90.50;;;;;;5073472;28;20063;-71
2021/01/02 11:59:46;;;;;;;20.42;12.20;;;6.90;90.60;;;;;;5073153;28;20029;-68
2021/01/02 12:02:12;;;;;;;20.55;12.63;;;6.80;90.60;;;;;;5091567;28;20028;-70
2021/01/02 12:04:37;;;;;;;22.08;14.30;;;6.80;90.70;;;;;;5086816;28;20511;-70
2021/01/02 12:07:03;;;;;;;22.70;13.32;;;6.80;90.50;;;;;;5093672;28;20027;-70
2021/01/02 12:09:29;;;;;;;19.73;13.23;;;6.80;90.50;;;;;;5090236;28;20019;-71
2021/01/02 12:11:56;;;;;;;22.02;13.23;;;6.90;90.60;;;;;;5084377;28;20403;-70
2021/01/02 12:14:28;;;;;;;20.08;12.85;;;6.80;90.50;;;;;;5079387;28;20139;-70
2021/01/02 12:16:55;;;;;;;26.65;13.73;;;6.80;90.50;;;;;;5074147;28;20086;-70
2021/01/02 12:19:26;;;;;;;20.48;13.23;;;6.80;90.60;;;;;;5073431;28;20492;-69
2021/01/02 12:21:57;;;;;;;20.27;12.85;;;6.80;90.50;;;;;;5076803;28;20028;-70
2021/01/02 12:24:23;;;;;;;21.35;13.23;;;6.80;90.60;;;;;;5074028;28;20485;-71
2021/01/02 12:26:54;;;;;;;20.27;12.82;;;6.90;90.60;;;;;;5074557;28;20031;-70
2021/01/02 12:29:21;;;;;;;21.75;13.23;;;6.90;90.60;;;;;;5074069;28;20070;-70
2021/01/02 12:31:53;;;;;;;21.63;13.80;;;7.00;90.60;;;;;;5079428;28;20020;-70
2021/01/02 12:34:22;;;;;;;23.52;14.38;;;7.00;90.60;;;;;;5074023;28;20033;-70
2021/01/02 12:36:47;;;;;;;21.95;13.98;;;7.00;90.60;;;;;;5073577;28;20102;-70
2021/01/02 12:39:16;;;;;;;27.63;13.43;;;7.00;90.50;;;;;;5072915;28;20056;-70
2021/01/02 12:41:42;;;;;;;20.98;13.73;;;7.00;90.50;;;;;;5071240;28;20031;-70
2021/01/02 12:44:08;;;;;;;23.45;14.13;;;7.00;90.60;;;;;;5072515;28;20036;-70
2021/01/02 12:46:52;;;;;;;23.00;14.00;;;7.00;90.50;;;;;;5073198;28;20028;-70
2021/01/02 12:49:21;;;;;;;23.38;14.32;;;7.00;90.60;;;;;;5081059;28;20032;-70
2021/01/02 12:51:47;;;;;;;24.42;14.90;;;7.00;90.60;;;;;;5080100;28;20032;-70
2021/01/02 12:54:13;;;;;;;23.60;14.60;;;7.10;90.60;;;;;;5083530;28;20412;-70
2021/01/02 12:56:43;;;;;;;22.48;13.60;;;7.10;90.60;;;;;;5086111;28;20095;-71